Time;durP1;ratioP1;P1;durP2;ratioP2;P2;SDS_P1;SDS_P2;PMS_P1;PMS_P2;Temp;Humidity;BMP_temperature;BMP_pressure;BME280_temperature;BME280_humidity;BME280_pressure;Samples;Min_cycle;Max_cycle;Signal;HPM_P1;HPM_P2
2021/12/08 00:01:39;;;;;;;1.83;0.43;;;2.10;99.90;;;;;;4943916;28;20054;-86
2021/12/08 00:04:05;;;;;;;1.67;0.40;;;2.10;99.90;;;;;;4939548;28;20404;-87
2021/12/08 00:06:32;;;;;;;1.63;0.60;;;2.20;99.90;;;;;;4955947;28;20027;-87
2021/12/08 00:09:06;;;;;;;0.90;0.30;;;2.10;99.90;;;;;;4955939;29;20023;-87
2021/12/08 00:14:23;;;;;;;6.57;0.50;;;2.10;99.90;;;;;;4957232;29;20353;-88
2021/12/08 00:16:49;;;;;;;3.73;0.43;;;2.10;99.90;;;;;;4956245;29;20034;-87
2021/12/08 00:19:14;;;;;;;2.00;0.50;;;2.10;99.90;;;;;;4947156;29;20035;-87
2021/12/08 00:21:40;;;;;;;2.33;0.70;;;2.10;99.90;;;;;;4955386;29;20412;-87
2021/12/08 00:24:07;;;;;;;3.07;0.80;;;2.10;99.90;;;;;;4959151;28;20039;-87
2021/12/08 00:26:33;;;;;;;4.57;0.73;;;2.30;99.90;;;;;;4957541;28;20031;-87
2021/12/08 00:28:59;;;;;;;3.60;0.70;;;2.20;99.90;;;;;;4955804;29;20099;-86
2021/12/08 00:31:24;;;;;;;1.97;0.80;;;2.10;99.90;;;;;;4955929;29;20031;-87
2021/12/08 00:33:50;;;;;;;2.93;0.70;;;2.10;99.90;;;;;;4956637;29;20071;-87
2021/12/08 00:36:18;;;;;;;1.43;0.50;;;2.00;99.90;;;;;;4959424;28;20037;-87
2021/12/08 00:38:47;;;;;;;1.80;0.63;;;2.00;99.90;;;;;;4960300;28;20095;-87
2021/12/08 00:41:13;;;;;;;2.23;0.50;;;2.00;99.90;;;;;;4960059;28;20034;-87
2021/12/08 00:43:40;;;;;;;1.63;0.67;;;2.00;99.90;;;;;;4957876;28;20019;-87
2021/12/08 00:46:06;;;;;;;3.13;0.63;;;2.00;99.90;;;;;;4957661;28;20050;-86
2021/12/08 00:48:31;;;;;;;0.93;0.37;;;2.00;99.90;;;;;;4975355;28;20439;-87
2021/12/08 00:50:57;;;;;;;4.70;0.67;;;1.90;99.90;;;;;;4975130;28;20102;-87
2021/12/08 00:53:23;;;;;;;2.77;0.60;;;1.90;99.90;;;;;;4975203;28;20391;-86
2021/12/08 00:55:55;;;;;;;3.60;0.47;;;1.80;99.90;;;;;;4957166;28;20057;-87
2021/12/08 00:58:20;;;;;;;3.38;0.75;;;1.80;99.90;;;;;;4975198;28;20049;-86
2021/12/08 01:00:52;;;;;;;0.93;0.40;;;1.70;99.90;;;;;;4975357;28;20031;-86
2021/12/08 01:03:19;;;;;;;2.37;0.70;;;1.70;99.90;;;;;;4950415;28;20030;-86
2021/12/08 01:05:51;;;;;;;2.63;0.87;;;1.60;99.90;;;;;;4968884;28;20503;-86
2021/12/08 01:08:20;;;;;;;1.27;0.43;;;1.50;99.90;;;;;;4977932;28;20112;-86
2021/12/08 01:10:48;;;;;;;1.63;0.60;;;1.50;99.90;;;;;;4973132;28;20022;-86
2021/12/08 01:13:16;;;;;;;1.90;0.60;;;1.60;99.90;;;;;;4939500;28;20026;-87
2021/12/08 01:15:46;;;;;;;3.03;0.80;;;1.40;99.90;;;;;;4944188;29;20572;-86
2021/12/08 01:18:12;;;;;;;3.23;0.60;;;1.30;99.90;;;;;;4965060;28;20031;-86
2021/12/08 01:20:38;;;;;;;1.83;0.60;;;1.30;99.90;;;;;;4972845;28;20384;-85
2021/12/08 01:23:04;;;;;;;2.10;0.67;;;1.30;99.90;;;;;;4959016;29;20050;-86
2021/12/08 01:25:30;;;;;;;3.50;0.80;;;1.30;99.90;;;;;;4973964;28;20038;-86
2021/12/08 01:27:56;;;;;;;4.00;0.97;;;1.30;99.90;;;;;;4943040;29;20024;-86
2021/12/08 01:30:22;;;;;;;1.77;0.70;;;1.20;99.90;;;;;;4959980;28;20086;-85
2021/12/08 01:32:49;;;;;;;2.13;0.73;;;1.20;99.90;;;;;;4942460;29;20051;-85
2021/12/08 01:35:14;;;;;;;3.33;0.70;;;1.20;99.90;;;;;;4941844;29;20114;-85
2021/12/08 01:37:41;;;;;;;0.93;0.63;;;1.20;99.90;;;;;;4972723;28;20105;-86
2021/12/08 01:40:09;;;;;;;2.93;0.77;;;1.20;99.90;;;;;;4961514;28;20484;-85
2021/12/08 01:42:42;;;;;;;2.20;0.70;;;1.20;99.90;;;;;;4980452;28;20035;-85
2021/12/08 01:47:56;;;;;;;2.20;0.80;;;1.30;99.90;;;;;;4981192;28;20109;-86
2021/12/08 01:50:22;;;;;;;1.60;0.50;;;1.20;99.90;;;;;;4980299;28;20484;-84
2021/12/08 01:52:51;;;;;;;3.17;0.70;;;1.30;99.90;;;;;;4979160;28;20445;-85
2021/12/08 01:55:16;;;;;;;1.90;0.83;;;1.30;99.90;;;;;;4979290;28;20050;-86
2021/12/08 01:57:44;;;;;;;5.20;0.67;;;1.30;99.90;;;;;;4979403;28;20035;-85
2021/12/08 02:00:17;;;;;;;2.33;0.50;;;1.30;99.90;;;;;;4979263;28;20407;-85
2021/12/08 02:02:43;;;;;;;3.77;0.60;;;1.30;99.90;;;;;;4942454;29;20066;-86
2021/12/08 02:05:09;;;;;;;1.83;0.67;;;1.30;99.90;;;;;;4965601;28;20475;-86
2021/12/08 02:07:35;;;;;;;1.50;0.43;;;1.30;99.90;;;;;;4978783;28;20026;-86
2021/12/08 02:10:03;;;;;;;2.07;0.60;;;1.30;99.90;;;;;;4962184;28;20033;-86
2021/12/08 02:12:32;;;;;;;2.87;0.67;;;1.30;99.90;;;;;;4962080;28;20038;-86
2021/12/08 02:14:59;;;;;;;1.73;0.53;;;1.30;99.90;;;;;;4958235;29;20035;-86
2021/12/08 02:17:25;;;;;;;3.20;0.77;;;1.30;99.90;;;;;;4958669;29;20380;-86
2021/12/08 02:19:53;;;;;;;3.50;0.70;;;1.30;99.90;;;;;;4958659;29;20031;-86
2021/12/08 02:22:18;;;;;;;2.70;0.83;;;1.30;99.90;;;;;;4967936;28;20467;-86
2021/12/08 02:24:44;;;;;;;6.60;0.83;;;1.30;99.90;;;;;;4951286;28;20027;-86
2021/12/08 02:27:11;;;;;;;2.47;0.73;;;1.30;99.90;;;;;;4974111;28;20023;-86
2021/12/08 02:29:47;;;;;;;1.43;0.60;;;1.30;99.90;;;;;;4959483;29;20034;-86
2021/12/08 02:48:33;;;;;;;1.53;0.50;;;1.30;99.90;;;;;;4976172;28;20058;-86
2021/12/08 02:50:59;;;;;;;1.10;0.40;;;1.30;99.90;;;;;;4973134;28;20031;-88
2021/12/08 02:53:24;;;;;;;1.30;0.50;;;1.30;99.90;;;;;;4960298;28;20033;-86
2021/12/08 02:55:51;;;;;;;2.27;0.80;;;1.40;99.90;;;;;;4960080;28;20026;-86
2021/12/08 02:58:18;;;;;;;1.63;0.63;;;1.30;99.90;;;;;;4974111;28;20019;-86
2021/12/08 03:01:03;;;;;;;2.37;0.50;;;1.40;99.90;;;;;;4956640;29;20431;-85
2021/12/08 03:03:29;;;;;;;2.50;0.70;;;1.40;99.90;;;;;;4943473;28;20045;-86
2021/12/08 03:05:55;;;;;;;2.07;0.60;;;1.30;99.90;;;;;;4959974;28;20050;-86
2021/12/08 03:08:20;;;;;;;2.50;0.67;;;1.40;99.90;;;;;;4959882;28;20038;-87
2021/12/08 03:10:51;;;;;;;1.90;0.67;;;1.40;99.90;;;;;;4960168;28;20399;-86
2021/12/08 03:13:17;;;;;;;1.07;0.57;;;1.40;99.90;;;;;;4976929;28;20030;-85
2021/12/08 03:15:43;;;;;;;1.90;0.70;;;1.40;99.90;;;;;;4948683;23;20055;-85
2021/12/08 03:18:09;;;;;;;3.70;0.80;;;1.40;99.90;;;;;;4942201;29;20118;-85
2021/12/08 03:20:42;;;;;;;1.43;0.60;;;1.30;99.90;;;;;;4939926;29;20122;-85
2021/12/08 03:23:16;;;;;;;3.97;0.83;;;1.40;99.90;;;;;;4937720;29;20031;-85
2021/12/08 03:25:45;;;;;;;1.33;0.50;;;1.40;99.90;;;;;;4956222;28;20396;-85
2021/12/08 03:28:24;;;;;;;2.60;0.77;;;1.40;99.90;;;;;;4938722;29;20024;-86
2021/12/08 03:31:01;;;;;;;2.47;0.90;;;1.40;99.90;;;;;;4969954;28;20063;-86
2021/12/08 03:33:27;;;;;;;1.73;0.67;;;1.40;99.90;;;;;;4931520;29;20025;-86
2021/12/08 03:35:53;;;;;;;1.80;0.57;;;1.40;99.90;;;;;;4916727;29;20087;-86
2021/12/08 03:38:21;;;;;;;1.57;0.73;;;1.40;99.90;;;;;;4916304;29;20036;-85
2021/12/08 03:40:48;;;;;;;2.77;0.80;;;1.40;99.90;;;;;;4924968;29;20027;-85
2021/12/08 03:43:15;;;;;;;4.00;0.80;;;1.40;99.90;;;;;;4933543;29;20023;-85
2021/12/08 03:45:45;;;;;;;3.33;0.87;;;1.40;99.90;;;;;;4921286;29;20503;-85
2021/12/08 03:48:27;;;;;;;1.73;0.70;;;1.40;99.90;;;;;;4934820;29;20023;-85
2021/12/08 03:50:54;;;;;;;2.05;0.70;;;1.30;99.90;;;;;;4927653;29;20024;-86
2021/12/08 03:53:20;;;;;;;2.63;0.77;;;1.30;99.90;;;;;;4899333;29;20051;-85
2021/12/08 03:55:48;;;;;;;2.07;0.70;;;1.30;99.90;;;;;;4899517;29;20421;-86
2021/12/08 03:58:15;;;;;;;4.73;0.70;;;1.40;99.90;;;;;;4915266;29;20020;-85
2021/12/08 04:00:45;;;;;;;3.13;1.00;;;1.40;99.90;;;;;;4916374;29;20028;-85
2021/12/08 04:03:12;;;;;;;3.17;1.13;;;1.40;99.90;;;;;;4899897;29;20369;-85
2021/12/08 04:08:17;;;;;;;3.13;0.80;;;1.40;99.90;;;;;;4933484;29;20032;-86
2021/12/08 04:10:47;;;;;;;2.53;1.00;;;1.40;99.90;;;;;;4935806;29;20026;-86
2021/12/08 04:13:15;;;;;;;3.37;1.10;;;1.50;99.90;;;;;;4918023;29;20024;-86
2021/12/08 04:15:40;;;;;;;4.97;1.27;;;1.40;99.90;;;;;;4914451;29;20028;-86
2021/12/08 04:18:06;;;;;;;2.77;1.10;;;1.40;99.90;;;;;;4918015;29;20603;-86
2021/12/08 04:20:39;;;;;;;3.57;1.30;;;1.50;99.90;;;;;;4918073;29;20023;-86
2021/12/08 04:23:14;;;;;;;5.53;1.10;;;1.50;99.90;;;;;;4921041;29;20059;-86
2021/12/08 04:25:45;;;;;;;3.43;0.93;;;1.50;99.90;;;;;;4916252;29;20044;-86
2021/12/08 04:28:26;;;;;;;3.27;1.17;;;1.50;99.90;;;;;;4915351;29;20487;-86
2021/12/08 04:30:51;;;;;;;4.83;1.30;;;1.50;99.90;;;;;;4937008;29;20027;-85
2021/12/08 04:33:17;;;;;;;3.43;1.30;;;1.50;99.90;;;;;;4943005;28;20030;-86
2021/12/08 04:35:48;;;;;;;4.60;1.60;;;1.50;99.90;;;;;;4915855;29;20099;-85
2021/12/08 04:38:24;;;;;;;3.50;1.20;;;1.50;99.90;;;;;;4899323;29;20106;-86
2021/12/08 04:41:04;;;;;;;4.60;1.37;;;1.60;99.90;;;;;;4899103;29;20032;-86
2021/12/08 04:43:50;;;;;;;3.40;1.20;;;1.60;99.90;;;;;;4899777;29;20493;-86
2021/12/08 04:51:44;;;;;;;4.47;1.77;;;1.70;99.90;;;;;;4953597;29;20054;-86
2021/12/08 05:10:02;;;;;;;7.53;1.33;;;2.00;99.90;;;;;;4935137;29;20027;-86
2021/12/08 05:12:31;;;;;;;3.27;1.23;;;2.00;99.90;;;;;;4917431;29;20154;-86
2021/12/08 05:15:10;;;;;;;3.37;1.43;;;2.00;99.90;;;;;;4934388;29;20500;-86
2021/12/08 05:18:00;;;;;;;5.40;1.50;;;2.00;99.90;;;;;;4950054;29;20035;-86
2021/12/08 05:20:39;;;;;;;3.60;1.07;;;2.00;99.90;;;;;;4917335;29;20031;-86
2021/12/08 05:23:34;;;;;;;3.87;1.57;;;2.00;99.90;;;;;;4956647;28;20121;-86
2021/12/08 05:26:03;;;;;;;6.50;1.53;;;2.10;99.90;;;;;;4911887;29;20412;-86
2021/12/08 05:28:30;;;;;;;3.80;1.60;;;2.00;99.90;;;;;;4916754;29;20034;-86
2021/12/08 05:31:09;;;;;;;4.80;1.97;;;2.00;99.90;;;;;;4917377;29;20032;-86
2021/12/08 05:33:36;;;;;;;3.67;1.70;;;2.00;99.90;;;;;;4929809;29;20079;-86
2021/12/08 05:36:03;;;;;;;4.17;1.80;;;2.00;99.90;;;;;;4919001;29;20062;-86
2021/12/08 05:38:31;;;;;;;9.47;1.73;;;2.00;99.90;;;;;;4917137;29;20063;-86
2021/12/08 05:41:06;;;;;;;4.83;1.70;;;2.00;99.90;;;;;;4911534;29;20024;-86
2021/12/08 05:43:32;;;;;;;5.80;1.73;;;2.00;99.90;;;;;;4915819;29;20028;-86
2021/12/08 05:45:58;;;;;;;4.00;1.50;;;2.00;99.90;;;;;;4916358;29;20087;-86
2021/12/08 05:48:27;;;;;;;6.10;1.77;;;2.00;99.90;;;;;;4916650;29;20103;-86
2021/12/08 05:51:04;;;;;;;5.10;1.97;;;2.00;99.90;;;;;;4916293;29;20027;-86
2021/12/08 05:53:31;;;;;;;7.87;1.73;;;2.10;99.90;;;;;;4917207;29;20028;-86
2021/12/08 05:55:57;;;;;;;5.97;1.90;;;2.10;99.90;;;;;;4917118;29;20044;-86
2021/12/08 05:58:25;;;;;;;3.73;1.50;;;2.20;99.90;;;;;;4916405;29;20028;-86
2021/12/08 06:00:56;;;;;;;3.73;1.50;;;2.20;99.90;;;;;;4922213;29;20034;-88
2021/12/08 06:03:22;;;;;;;4.30;1.77;;;2.20;99.90;;;;;;4935816;29;20496;-88
2021/12/08 06:05:50;;;;;;;4.90;1.87;;;2.20;99.90;;;;;;4938374;29;20090;-88
2021/12/08 06:08:17;;;;;;;6.17;2.27;;;2.20;99.90;;;;;;4934385;29;20027;-88
2021/12/08 06:10:46;;;;;;;4.70;1.40;;;2.30;99.90;;;;;;4920313;29;20024;-88
2021/12/08 06:13:14;;;;;;;3.83;1.57;;;2.30;99.90;;;;;;4933802;29;20063;-87
2021/12/08 06:15:44;;;;;;;11.83;2.63;;;2.40;99.90;;;;;;4922772;29;20043;-88
2021/12/08 06:18:10;;;;;;;5.30;1.70;;;2.40;99.90;;;;;;4945178;29;20050;-88
2021/12/08 06:20:38;;;;;;;5.10;1.67;;;2.40;99.90;;;;;;4920476;29;20107;-89
2021/12/08 06:23:07;;;;;;;8.43;2.27;;;2.40;99.90;;;;;;4937490;29;20670;-88
2021/12/08 06:25:34;;;;;;;4.50;1.87;;;2.40;99.90;;;;;;4937852;29;20032;-88
2021/12/08 06:28:00;;;;;;;4.73;1.77;;;2.30;99.90;;;;;;4922049;29;20090;-88
2021/12/08 06:30:29;;;;;;;4.70;1.80;;;2.40;99.90;;;;;;4937331;29;20024;-88
2021/12/08 06:33:01;;;;;;;7.37;1.80;;;2.50;99.90;;;;;;4920399;29;20043;-88
2021/12/08 06:35:35;;;;;;;5.10;1.30;;;2.40;99.90;;;;;;4921523;29;20051;-88
2021/12/08 06:38:01;;;;;;;4.30;1.73;;;2.40;99.90;;;;;;4937341;29;20050;-88
2021/12/08 06:40:40;;;;;;;3.70;1.60;;;2.50;99.90;;;;;;4939721;29;20116;-88
2021/12/08 06:43:08;;;;;;;5.40;1.90;;;2.40;99.90;;;;;;4938053;29;20512;-88
2021/12/08 06:45:40;;;;;;;6.07;2.20;;;2.40;99.90;;;;;;4919516;29;20039;-88
2021/12/08 06:48:09;;;;;;;7.30;2.60;;;2.40;99.90;;;;;;4919967;29;20028;-87
2021/12/08 06:51:02;;;;;;;6.20;1.90;;;2.40;99.90;;;;;;4921094;29;20039;-87
2021/12/08 06:53:28;;;;;;;5.05;2.03;;;2.40;99.90;;;;;;4920061;29;20107;-87
2021/12/08 06:56:01;;;;;;;8.17;2.33;;;2.40;99.90;;;;;;4939621;29;20053;-88
2021/12/08 06:58:29;;;;;;;4.90;2.23;;;2.40;99.90;;;;;;4937701;29;20036;-87
2021/12/08 07:06:47;;;;;;;5.67;2.07;;;2.30;99.90;;;;;;4939266;29;20020;-88
2021/12/08 07:09:26;;;;;;;6.90;2.00;;;2.40;99.90;;;;;;4922104;29;20034;-87
2021/12/08 07:11:54;;;;;;;6.87;2.63;;;2.40;99.90;;;;;;4913210;29;20043;-89
2021/12/08 07:14:21;;;;;;;5.37;2.00;;;2.50;99.90;;;;;;4917918;29;20035;-88
2021/12/08 07:16:51;;;;;;;6.80;2.33;;;2.40;99.90;;;;;;4920853;29;20040;-87
2021/12/08 07:19:35;;;;;;;6.17;2.77;;;2.40;99.90;;;;;;4917342;29;20035;-87
2021/12/08 07:22:04;;;;;;;6.47;2.50;;;2.40;99.90;;;;;;4936015;29;20500;-87
2021/12/08 07:24:37;;;;;;;5.73;2.30;;;2.30;99.90;;;;;;4920011;29;20138;-86
2021/12/08 07:27:10;;;;;;;7.83;2.37;;;2.40;99.90;;;;;;4920379;29;20520;-87
2021/12/08 07:29:39;;;;;;;3.60;1.70;;;2.30;99.90;;;;;;4920758;29;20027;-87
2021/12/08 07:32:16;;;;;;;4.93;2.23;;;2.30;99.90;;;;;;4920767;29;20058;-87
2021/12/08 07:34:43;;;;;;;9.00;2.63;;;2.30;99.90;;;;;;4918519;29;20392;-86
2021/12/08 07:37:16;;;;;;;6.90;2.13;;;2.30;99.90;;;;;;4934221;29;20070;-85
2021/12/08 07:39:47;;;;;;;4.43;2.10;;;2.30;99.90;;;;;;4937532;29;20027;-87
2021/12/08 07:42:45;;;;;;;6.47;2.53;;;2.30;99.90;;;;;;4935014;29;20413;-86
2021/12/08 07:45:16;;;;;;;7.87;2.03;;;2.30;99.90;;;;;;4915253;29;20074;-86
2021/12/08 07:47:42;;;;;;;5.65;1.95;;;2.30;99.90;;;;;;4918494;29;20504;-86
2021/12/08 07:50:42;;;;;;;5.07;2.27;;;2.30;99.90;;;;;;4919286;29;20089;-86
2021/12/08 07:53:09;;;;;;;5.30;2.37;;;2.30;99.90;;;;;;4918351;29;20071;-86
2021/12/08 07:55:39;;;;;;;6.80;2.50;;;2.30;99.90;;;;;;4926587;29;20036;-86
2021/12/08 07:58:16;;;;;;;4.53;2.13;;;2.40;99.90;;;;;;4899840;29;20059;-88
2021/12/08 08:01:07;;;;;;;6.53;2.33;;;2.40;99.90;;;;;;4918616;29;20051;-88
2021/12/08 08:03:36;;;;;;;7.17;2.33;;;2.40;99.90;;;;;;4914489;29;20110;-87
2021/12/08 08:06:18;;;;;;;4.07;2.27;;;2.40;99.90;;;;;;4915099;29;20104;-89
2021/12/08 08:08:47;;;;;;;5.45;2.40;;;2.40;99.90;;;;;;4908270;29;20405;-87
2021/12/08 08:11:31;;;;;;;5.83;2.37;;;2.40;99.90;;;;;;4920692;29;20090;-88
2021/12/08 08:14:03;;;;;;;6.57;2.77;;;2.40;99.90;;;;;;4914467;29;20038;-88
2021/12/08 08:16:32;;;;;;;;;;;2.40;99.90;;;;;;4915858;29;20117;-89
2021/12/08 08:19:12;;;;;;;8.60;3.03;;;2.50;99.90;;;;;;4905426;29;19917;-89
2021/12/08 08:21:49;;;;;;;6.80;3.33;;;2.40;99.90;;;;;;4917240;29;20048;-88
2021/12/08 08:24:22;;;;;;;8.23;3.43;;;2.40;99.90;;;;;;4934420;29;20027;-88
2021/12/08 08:26:56;;;;;;;6.53;3.23;;;2.50;99.90;;;;;;4917940;29;20056;-88
2021/12/08 08:29:23;;;;;;;9.97;3.57;;;2.40;99.90;;;;;;4915309;29;20036;-88
2021/12/08 08:31:59;;;;;;;7.80;3.80;;;2.40;99.90;;;;;;4898972;29;20068;-88
2021/12/08 08:35:08;;;;;;;8.67;3.63;;;2.40;99.90;;;;;;4914389;29;20079;-88
2021/12/08 08:37:38;;;;;;;8.17;3.00;;;2.30;99.90;;;;;;4929460;29;20461;-88
2021/12/08 08:40:19;;;;;;;10.80;3.43;;;2.30;99.90;;;;;;4916622;29;20038;-88
2021/12/08 08:42:51;;;;;;;8.32;3.53;;;2.40;99.90;;;;;;4916934;29;20441;-88
2021/12/08 08:45:35;;;;;;;6.77;3.10;;;2.50;99.90;;;;;;4916733;29;20032;-88
2021/12/08 08:48:23;;;;;;;8.20;2.77;;;2.40;99.90;;;;;;4914593;29;20131;-88
2021/12/08 08:50:53;;;;;;;8.10;2.97;;;2.40;99.90;;;;;;4917588;29;20394;-88
2021/12/08 08:53:25;;;;;;;5.13;2.47;;;2.50;99.90;;;;;;4938598;29;20528;-88
2021/12/08 08:56:11;;;;;;;;;;;;;;;;;;;;;
2021/12/08 08:58:47;;;;;;;7.67;2.50;;;2.60;99.90;;;;;;4916157;29;20050;-87
2021/12/08 09:01:29;;;;;;;12.70;2.50;;;2.60;99.90;;;;;;4917076;29;20027;-87
2021/12/08 09:04:30;;;;;;;11.27;3.22;;;2.60;99.90;;;;;;4932604;29;20019;-87
2021/12/08 09:07:07;;;;;;;8.80;3.60;;;2.60;99.90;;;;;;4909998;29;20019;-88
2021/12/08 09:10:00;;;;;;;7.33;3.57;;;2.60;99.90;;;;;;4916683;29;20035;-88
2021/12/08 09:12:47;;;;;;;10.43;2.83;;;2.60;99.90;;;;;;4932260;29;20063;-88
2021/12/08 09:15:40;;;;;;;6.87;3.27;;;2.70;99.90;;;;;;4916750;29;20036;-87
2021/12/08 09:18:48;;;;;;;12.23;3.10;;;2.70;99.90;;;;;;4946588;29;20095;-88
2021/12/08 09:21:21;;;;;;;9.03;3.07;;;2.70;99.90;;;;;;4954560;23;21981;-82
2021/12/08 09:24:03;;;;;;;11.43;3.73;;;2.70;99.90;;;;;;4968135;28;20019;-84
2021/12/08 09:26:31;;;;;;;7.18;2.50;;;2.70;99.90;;;;;;4954576;28;20130;-85
2021/12/08 09:29:03;;;;;;;7.47;3.47;;;2.70;99.90;;;;;;4953238;28;20027;-85
2021/12/08 09:31:39;;;;;;;9.35;3.35;;;2.70;99.90;;;;;;4971202;28;20052;-84
2021/12/08 09:34:19;;;;;;;7.00;3.00;;;2.80;99.90;;;;;;4954519;28;20050;-85
2021/12/08 09:36:54;;;;;;;6.13;2.90;;;2.80;99.90;;;;;;4973141;28;20026;-84
2021/12/08 09:39:29;;;;;;;6.97;3.07;;;2.80;99.90;;;;;;4975676;28;20038;-84
2021/12/08 09:42:17;;;;;;;7.57;3.03;;;2.80;99.90;;;;;;4957895;28;20040;-84
2021/12/08 09:45:09;;;;;;;6.53;2.40;;;2.90;99.90;;;;;;4969209;28;20120;-84
2021/12/08 09:47:35;;;;;;;6.13;2.72;;;2.90;99.90;;;;;;4955021;28;20114;-85
2021/12/08 09:50:05;;;;;;;6.63;2.40;;;2.90;99.90;;;;;;4978098;28;20062;-84
2021/12/08 09:52:33;;;;;;;5.57;1.93;;;2.90;99.90;;;;;;4958780;28;20022;-85
2021/12/08 09:55:01;;;;;;;6.60;2.70;;;3.00;99.90;;;;;;4975027;28;20042;-85
2021/12/08 09:57:29;;;;;;;4.60;2.07;;;3.00;99.90;;;;;;4954889;28;20023;-85
2021/12/08 09:59:56;;;;;;;5.50;2.27;;;3.00;99.90;;;;;;4957344;28;20110;-84
2021/12/08 10:02:29;;;;;;;4.87;2.27;;;3.00;99.90;;;;;;4955236;28;20031;-85
2021/12/08 10:05:08;;;;;;;3.50;1.60;;;3.10;99.90;;;;;;4973505;28;20102;-85
2021/12/08 10:07:34;;;;;;;5.47;2.53;;;3.10;99.90;;;;;;4974679;28;20077;-84
2021/12/08 10:10:00;;;;;;;4.17;2.03;;;3.10;99.90;;;;;;4971983;28;20022;-84
2021/12/08 10:12:26;;;;;;;6.43;2.13;;;3.10;99.90;;;;;;4974325;28;20033;-84
2021/12/08 10:14:52;;;;;;;5.93;2.40;;;3.10;99.90;;;;;;4956899;28;20397;-82
2021/12/08 10:17:19;;;;;;;5.93;2.23;;;3.10;99.90;;;;;;4953188;28;20633;-82
2021/12/08 10:20:02;;;;;;;4.53;2.03;;;3.20;99.90;;;;;;4951803;28;20033;-82
2021/12/08 10:22:28;;;;;;;9.20;2.40;;;3.20;99.90;;;;;;4966073;28;20031;-83
2021/12/08 10:25:23;;;;;;;4.17;1.63;;;3.20;99.90;;;;;;4952463;28;20081;-82
2021/12/08 10:28:18;;;;;;;4.73;1.93;;;3.20;99.90;;;;;;4972287;28;20030;-85
2021/12/08 10:31:03;;;;;;;3.33;2.00;;;3.30;99.90;;;;;;4951826;28;20023;-85
2021/12/08 10:39:05;;;;;;;5.47;2.03;;;3.30;99.90;;;;;;4974051;28;20035;-85
2021/12/08 10:41:42;;;;;;;4.17;1.70;;;3.40;99.90;;;;;;4971782;28;20023;-85
2021/12/08 10:44:08;;;;;;;5.67;1.87;;;3.40;99.90;;;;;;4972279;28;20026;-82
2021/12/08 10:46:37;;;;;;;9.67;1.90;;;3.40;99.90;;;;;;4969788;28;20027;-82
2021/12/08 10:54:45;;;;;;;5.43;2.10;;;3.50;99.90;;;;;;4973365;28;20038;-82
2021/12/08 10:57:33;;;;;;;6.53;1.80;;;3.50;99.90;;;;;;4956440;28;20071;-83
2021/12/08 10:59:58;;;;;;;4.30;1.57;;;3.50;99.90;;;;;;4954850;28;20440;-83
2021/12/08 11:02:42;;;;;;;5.33;1.90;;;3.50;99.90;;;;;;4968210;28;20102;-83
2021/12/08 11:05:28;;;;;;;3.93;1.63;;;3.50;99.90;;;;;;4973157;28;20027;-83
2021/12/08 11:08:08;;;;;;;5.47;1.77;;;3.60;99.90;;;;;;4949793;28;20034;-85
2021/12/08 11:11:03;;;;;;;4.23;1.63;;;3.60;99.90;;;;;;4973882;28;20030;-85
2021/12/08 11:13:38;;;;;;;3.40;1.47;;;3.60;99.90;;;;;;4955368;29;20042;-85
2021/12/08 11:16:07;;;;;;;3.77;2.10;;;3.70;99.90;;;;;;4961435;28;20102;-85
2021/12/08 11:18:38;;;;;;;3.47;1.77;;;3.70;99.90;;;;;;4953869;29;20027;-85
2021/12/08 11:21:07;;;;;;;4.23;1.97;;;3.70;99.90;;;;;;4954108;29;20031;-85
2021/12/08 11:23:43;;;;;;;6.00;2.27;;;3.70;99.90;;;;;;4957746;28;20030;-85
2021/12/08 11:26:22;;;;;;;4.50;2.50;;;3.70;99.90;;;;;;4952644;29;20408;-85
2021/12/08 11:29:19;;;;;;;6.00;2.07;;;3.70;99.90;;;;;;4937606;29;20023;-85
2021/12/08 11:31:53;;;;;;;5.47;2.37;;;3.70;99.90;;;;;;4954046;28;20424;-85
2021/12/08 11:34:25;;;;;;;4.47;1.53;;;3.70;99.90;;;;;;4967192;28;20042;-85
2021/12/08 11:37:04;;;;;;;8.37;1.70;;;3.70;99.90;;;;;;4956357;28;20506;-83
2021/12/08 11:39:38;;;;;;;3.80;1.70;;;3.70;99.90;;;;;;4973516;28;20030;-84
2021/12/08 11:42:12;;;;;;;4.97;1.97;;;3.80;99.90;;;;;;4951862;28;20080;-83
2021/12/08 11:44:59;;;;;;;3.37;1.63;;;3.80;99.90;;;;;;4968708;28;20081;-83
2021/12/08 11:47:31;;;;;;;3.57;1.47;;;3.80;99.90;;;;;;4953411;28;20630;-83
2021/12/08 11:49:58;;;;;;;;;;;3.80;99.90;;;;;;4951992;28;20034;-83
2021/12/08 11:52:29;;;;;;;3.30;1.40;;;3.80;99.90;;;;;;4964893;28;19960;-83
2021/12/08 11:54:56;;;;;;;3.13;1.50;;;3.80;99.90;;;;;;4956121;28;20019;-82
2021/12/08 11:57:24;;;;;;;4.13;1.57;;;3.80;99.90;;;;;;4961823;28;20373;-83
2021/12/08 11:59:59;;;;;;;3.30;1.60;;;3.80;99.90;;;;;;4947934;29;20031;-83
2021/12/08 12:02:37;;;;;;;4.03;1.43;;;3.80;99.90;;;;;;4952433;29;20491;-83
2021/12/08 12:05:07;;;;;;;6.17;1.50;;;3.80;99.90;;;;;;4952647;29;20023;-82
2021/12/08 12:07:33;;;;;;;4.57;1.60;;;3.80;99.90;;;;;;4954283;29;20023;-83
2021/12/08 12:09:59;;;;;;;3.33;1.23;;;3.80;99.90;;;;;;4956189;28;20030;-83
2021/12/08 12:12:24;;;;;;;3.33;1.43;;;3.80;99.90;;;;;;4954385;28;20045;-83
2021/12/08 12:14:51;;;;;;;3.70;1.20;;;3.80;99.90;;;;;;4953369;28;20037;-83
2021/12/08 12:17:17;;;;;;;3.10;1.50;;;3.90;99.90;;;;;;4961450;28;20055;-85
2021/12/08 12:19:52;;;;;;;3.73;1.80;;;3.90;99.90;;;;;;4977702;28;20034;-85
2021/12/08 12:22:35;;;;;;;5.37;1.70;;;3.90;99.90;;;;;;4961315;28;20612;-85
2021/12/08 12:25:58;;;;;;;4.90;1.40;;;3.90;99.90;;;;;;4953846;28;20019;-84
2021/12/08 12:28:45;;;;;;;2.63;1.15;;;4.00;99.90;;;;;;4910276;29;20497;-83
2021/12/08 12:31:20;;;;;;;3.27;1.37;;;4.00;99.90;;;;;;4896043;29;20024;-83
2021/12/08 12:33:47;;;;;;;2.97;1.40;;;4.00;99.90;;;;;;4933821;28;20186;-83
2021/12/08 12:36:34;;;;;;;5.63;1.50;;;4.00;99.90;;;;;;4957703;28;20037;-83
2021/12/08 12:39:45;;;;;;;3.80;1.50;;;4.00;99.90;;;;;;4952205;28;20563;-85
2021/12/08 12:42:14;;;;;;;3.05;1.30;;;4.10;99.90;;;;;;4908595;29;20040;-85
2021/12/08 12:44:45;;;;;;;4.77;1.27;;;4.00;99.90;;;;;;4963159;28;20026;-85
2021/12/08 12:47:26;;;;;;;2.78;1.25;;;4.10;99.90;;;;;;4969363;28;20446;-85
2021/12/08 12:50:09;;;;;;;4.10;1.40;;;4.10;99.90;;;;;;4950917;28;20369;-83
2021/12/08 12:52:44;;;;;;;4.78;1.35;;;4.10;99.90;;;;;;4951093;28;20046;-83
2021/12/08 12:55:16;;;;;;;3.33;1.43;;;4.10;99.90;;;;;;4952343;28;20028;-84
2021/12/08 12:58:05;;;;;;;3.00;1.20;;;4.10;99.90;;;;;;4969373;28;20019;-84
2021/12/08 13:00:38;;;;;;;4.23;1.50;;;4.20;99.90;;;;;;4968881;28;20019;-83
2021/12/08 13:03:05;;;;;;;3.43;1.60;;;4.10;99.90;;;;;;4951248;28;20105;-83
2021/12/08 13:05:57;;;;;;;4.17;1.63;;;4.20;99.90;;;;;;4969905;28;20506;-84
2021/12/08 13:08:33;;;;;;;4.03;1.75;;;4.20;99.90;;;;;;4963310;28;20047;-83
2021/12/08 13:11:04;;;;;;;4.43;1.63;;;4.20;99.90;;;;;;4946385;28;20062;-84
2021/12/08 13:13:48;;;;;;;3.83;1.87;;;4.20;99.90;;;;;;4948701;28;20100;-83
2021/12/08 13:16:27;;;;;;;3.97;1.70;;;4.20;99.90;;;;;;4953876;28;20057;-84
2021/12/08 13:19:00;;;;;;;3.83;1.90;;;4.20;99.90;;;;;;4971198;28;20357;-83
2021/12/08 13:21:58;;;;;;;4.67;2.20;;;4.20;99.90;;;;;;4957429;28;20078;-83
2021/12/08 13:24:40;;;;;;;4.20;1.90;;;4.20;99.90;;;;;;4973680;28;20019;-83
2021/12/08 13:27:13;;;;;;;6.63;2.17;;;4.20;99.90;;;;;;4953197;28;20027;-84
2021/12/08 13:29:46;;;;;;;5.20;2.43;;;4.20;99.90;;;;;;4973655;28;20034;-83
2021/12/08 13:32:15;;;;;;;10.18;3.30;;;4.30;99.90;;;;;;4955867;28;20384;-83
2021/12/08 13:34:55;;;;;;;9.07;3.37;;;4.30;99.90;;;;;;4955515;28;20038;-83
2021/12/08 13:37:24;;;;;;;4.90;2.33;;;4.50;99.90;;;;;;4977430;28;20092;-84
2021/12/08 13:39:52;;;;;;;6.60;2.37;;;4.50;99.90;;;;;;4978448;28;20054;-84
2021/12/08 13:42:28;;;;;;;5.63;2.30;;;4.50;99.90;;;;;;4958302;28;20480;-84
2021/12/08 13:44:58;;;;;;;5.33;2.00;;;4.50;99.90;;;;;;4947985;28;20051;-84
2021/12/08 13:47:26;;;;;;;5.80;2.50;;;4.60;99.90;;;;;;4952425;28;20106;-84
2021/12/08 13:50:00;;;;;;;5.80;2.70;;;4.50;99.90;;;;;;4968711;28;20019;-84
2021/12/08 13:52:36;;;;;;;6.07;2.70;;;4.50;99.90;;;;;;4952362;28;20105;-84
2021/12/08 13:55:26;;;;;;;6.87;2.53;;;4.50;99.90;;;;;;4952304;28;20768;-85
2021/12/08 13:58:07;;;;;;;6.90;2.70;;;4.40;99.90;;;;;;4954463;28;20076;-84
2021/12/08 14:00:47;;;;;;;9.43;5.10;;;4.40;99.90;;;;;;4970407;28;20506;-84
2021/12/08 14:03:23;;;;;;;10.13;3.73;;;4.40;99.90;;;;;;4951954;28;20142;-84
2021/12/08 14:05:57;;;;;;;8.13;3.47;;;4.40;99.90;;;;;;4945798;28;20050;-83
2021/12/08 14:08:35;;;;;;;5.87;2.73;;;4.40;99.90;;;;;;4962450;28;20053;-84
2021/12/08 14:11:12;;;;;;;5.80;2.47;;;4.30;99.90;;;;;;4950823;28;20046;-83
2021/12/08 14:13:41;;;;;;;7.33;3.70;;;4.20;99.90;;;;;;4953297;28;20053;-84
2021/12/08 14:16:14;;;;;;;5.63;2.53;;;4.20;99.90;;;;;;4955833;28;20155;-84
2021/12/08 14:18:44;;;;;;;4.73;1.80;;;4.10;99.90;;;;;;4954383;28;20027;-83
2021/12/08 14:21:12;;;;;;;5.77;2.27;;;4.10;99.90;;;;;;4969979;28;20033;-84
2021/12/08 14:23:42;;;;;;;5.33;3.30;;;4.10;99.90;;;;;;4956588;28;20027;-84
2021/12/08 14:26:18;;;;;;;8.03;4.50;;;4.00;99.90;;;;;;4953743;28;20111;-84
2021/12/08 14:28:52;;;;;;;5.47;2.87;;;3.90;99.90;;;;;;4953095;28;20030;-83
2021/12/08 14:31:38;;;;;;;9.07;2.63;;;3.90;99.90;;;;;;4952880;28;20110;-83